Time;durP1;ratioP1;P1;durP2;ratioP2;P2;SDS_P1;SDS_P2;PMS_P1;PMS_P2;Temp;Humidity;BMP_temperature;BMP_pressure;BME280_temperature;BME280_humidity;BME280_pressure;Samples;Min_cycle;Max_cycle;Signal;HPM_P1;HPM_P2
2021/10/23 00:00:40;;;;;;;10.20;7.68;;;8.20;99.90;;;;;;2063666;28;20030;-71
2021/10/23 00:01:41;;;;;;;11.20;7.15;;;8.30;99.90;;;;;;2070551;28;20450;-71
2021/10/23 00:02:41;;;;;;;11.15;7.25;;;8.20;99.90;;;;;;2069576;28;20049;-71
2021/10/23 00:03:42;;;;;;;9.73;6.93;;;8.20;99.90;;;;;;2064251;28;20475;-71
2021/10/23 00:04:42;;;;;;;12.32;7.97;;;8.20;99.90;;;;;;2068733;28;20072;-71
2021/10/23 00:05:43;;;;;;;8.43;6.90;;;8.20;99.90;;;;;;2071709;28;20477;-71
2021/10/23 00:06:44;;;;;;;10.88;7.53;;;8.20;99.90;;;;;;2064016;28;20037;-71
2021/10/23 00:07:44;;;;;;;11.75;7.85;;;8.20;99.90;;;;;;2066783;28;20026;-71
2021/10/23 00:08:45;;;;;;;11.55;7.25;;;8.20;99.90;;;;;;2065928;28;20519;-71
2021/10/23 00:09:45;;;;;;;10.13;7.20;;;8.20;99.90;;;;;;2065917;28;20026;-71
2021/10/23 00:10:46;;;;;;;12.25;8.30;;;8.20;99.90;;;;;;2066774;28;20034;-71
2021/10/23 00:11:46;;;;;;;8.57;6.78;;;8.20;99.90;;;;;;2063502;28;20030;-71
2021/10/23 00:12:47;;;;;;;13.18;7.97;;;8.20;99.90;;;;;;2063638;28;20030;-71
2021/10/23 00:13:47;;;;;;;10.82;8.40;;;8.20;99.90;;;;;;2071472;28;20422;-71
2021/10/23 00:14:48;;;;;;;16.90;9.52;;;8.20;99.90;;;;;;2062990;28;20018;-72
2021/10/23 00:15:49;;;;;;;11.93;8.20;;;8.10;99.90;;;;;;2065810;28;20530;-71
2021/10/23 00:16:50;;;;;;;11.55;8.27;;;8.10;99.90;;;;;;2064057;28;20030;-71
2021/10/23 00:17:51;;;;;;;12.57;7.97;;;8.20;99.90;;;;;;2069528;28;20018;-71
2021/10/23 00:18:51;;;;;;;12.38;7.47;;;8.10;99.90;;;;;;2070483;28;20034;-71
2021/10/23 00:19:52;;;;;;;8.45;6.63;;;8.10;99.90;;;;;;2064322;28;20023;-71
2021/10/23 00:20:53;;;;;;;9.55;7.25;;;8.10;99.90;;;;;;2063889;28;20076;-71
2021/10/23 00:21:53;;;;;;;10.38;6.72;;;8.10;99.90;;;;;;2064300;28;20096;-71
2021/10/23 00:22:54;;;;;;;13.32;6.55;;;8.10;99.90;;;;;;2063957;28;20110;-71
2021/10/23 00:23:54;;;;;;;11.35;6.97;;;8.10;99.90;;;;;;2064447;28;20034;-71
2021/10/23 00:24:56;;;;;;;10.90;8.20;;;8.10;99.90;;;;;;2070077;28;20101;-71
2021/10/23 00:25:56;;;;;;;8.73;7.63;;;8.10;99.90;;;;;;2067551;28;20026;-71
2021/10/23 00:26:57;;;;;;;10.48;6.72;;;8.10;99.90;;;;;;2077323;28;20026;-71
2021/10/23 00:27:57;;;;;;;9.90;7.18;;;8.10;99.90;;;;;;2078632;28;20032;-71
2021/10/23 00:28:58;;;;;;;11.10;7.80;;;8.10;99.90;;;;;;2072747;28;20377;-71
2021/10/23 00:29:59;;;;;;;12.93;6.88;;;8.10;99.90;;;;;;2071532;28;20038;-71
2021/10/23 00:30:59;;;;;;;8.98;7.50;;;8.10;99.90;;;;;;2065840;28;20033;-71
2021/10/23 00:32:00;;;;;;;8.23;7.13;;;8.10;99.90;;;;;;2070926;28;20077;-71
2021/10/23 00:33:02;;;;;;;10.50;6.63;;;8.10;99.90;;;;;;2063965;28;20037;-71
2021/10/23 00:34:03;;;;;;;8.68;6.15;;;8.10;99.90;;;;;;2064953;28;20106;-71
2021/10/23 00:35:05;;;;;;;10.00;7.15;;;8.10;99.90;;;;;;2064907;28;20034;-71
2021/10/23 00:36:06;;;;;;;17.70;7.80;;;8.10;99.90;;;;;;2071246;28;20112;-71
2021/10/23 00:37:06;;;;;;;10.18;6.72;;;8.10;99.90;;;;;;2067981;28;20038;-71
2021/10/23 00:38:07;;;;;;;9.25;6.90;;;8.10;99.90;;;;;;2071925;28;20062;-71
2021/10/23 00:39:07;;;;;;;10.73;7.55;;;8.10;99.90;;;;;;2069763;28;20030;-71
2021/10/23 00:40:09;;;;;;;11.18;7.80;;;8.10;99.90;;;;;;2070273;28;20036;-71
2021/10/23 00:41:09;;;;;;;10.23;7.55;;;8.10;99.90;;;;;;2063185;28;20842;-71
2021/10/23 00:42:10;;;;;;;12.68;8.55;;;8.10;99.90;;;;;;2065590;28;20368;-71
2021/10/23 00:43:11;;;;;;;11.13;7.22;;;8.10;99.90;;;;;;2071165;28;20029;-71
2021/10/23 00:44:31;;;;;;;10.70;7.97;;;8.10;99.90;;;;;;2072006;28;20099;-71
2021/10/23 00:45:32;;;;;;;11.70;8.40;;;8.10;99.90;;;;;;2072069;28;20701;-71
2021/10/23 00:46:33;;;;;;;11.40;7.88;;;8.10;99.90;;;;;;2071901;28;20076;-71
2021/10/23 00:47:33;;;;;;;16.17;8.10;;;8.10;99.90;;;;;;2071855;28;20033;-71
2021/10/23 00:48:34;;;;;;;12.30;8.57;;;8.10;99.90;;;;;;2071776;28;20021;-71
2021/10/23 00:49:35;;;;;;;13.73;8.02;;;8.10;99.90;;;;;;2071832;28;20025;-71
2021/10/23 00:50:36;;;;;;;16.02;9.77;;;8.10;99.90;;;;;;2071724;28;20061;-71
2021/10/23 00:51:37;;;;;;;14.38;10.20;;;8.10;99.90;;;;;;2068014;28;20066;-71
2021/10/23 00:52:38;;;;;;;13.90;9.95;;;8.10;99.90;;;;;;2063793;28;20026;-71
2021/10/23 00:53:39;;;;;;;14.43;10.10;;;8.10;99.90;;;;;;2066309;28;20386;-71
2021/10/23 00:54:40;;;;;;;13.00;9.60;;;8.10;99.90;;;;;;2064083;28;20109;-71
2021/10/23 00:55:42;;;;;;;14.05;7.60;;;8.10;99.90;;;;;;2063090;28;20026;-71
2021/10/23 00:56:42;;;;;;;11.00;8.52;;;8.10;99.90;;;;;;2063090;28;20030;-71
2021/10/23 00:57:43;;;;;;;14.32;9.00;;;8.10;99.90;;;;;;2077099;28;20056;-71
2021/10/23 00:58:44;;;;;;;17.27;10.45;;;8.10;99.90;;;;;;2064082;28;20022;-71
2021/10/23 00:59:45;;;;;;;12.50;8.75;;;8.10;99.90;;;;;;2071731;28;20034;-71
2021/10/23 01:00:46;;;;;;;19.17;11.07;;;8.10;99.90;;;;;;2072450;28;20062;-71
2021/10/23 01:01:48;;;;;;;12.23;8.82;;;8.10;99.90;;;;;;2064711;28;20121;-71
2021/10/23 01:02:48;;;;;;;10.45;8.63;;;8.10;99.90;;;;;;2063342;28;20033;-71
2021/10/23 01:03:49;;;;;;;13.65;9.57;;;8.10;99.90;;;;;;2063668;28;20037;-71
2021/10/23 01:04:50;;;;;;;18.55;11.05;;;8.00;99.90;;;;;;2063734;28;20025;-71
2021/10/23 01:05:50;;;;;;;15.95;10.57;;;8.10;99.90;;;;;;2063895;28;20471;-71
2021/10/23 01:06:52;;;;;;;13.43;9.43;;;8.10;99.90;;;;;;2063087;28;20034;-71
2021/10/23 01:07:53;;;;;;;15.70;10.45;;;8.10;99.90;;;;;;2065765;28;20022;-71
2021/10/23 01:08:53;;;;;;;13.18;11.30;;;8.10;99.90;;;;;;2062907;28;20026;-71
2021/10/23 01:09:54;;;;;;;15.75;10.15;;;8.10;99.90;;;;;;2063830;28;20033;-71
2021/10/23 01:10:55;;;;;;;13.30;9.80;;;8.10;99.90;;;;;;2062964;28;20523;-71
2021/10/23 01:11:56;;;;;;;14.20;9.88;;;8.10;99.90;;;;;;2063341;28;20058;-71
2021/10/23 01:12:58;;;;;;;20.05;11.30;;;8.10;99.90;;;;;;2063639;28;20026;-71
2021/10/23 01:13:58;;;;;;;11.38;8.38;;;8.10;99.90;;;;;;2063195;28;20052;-71
2021/10/23 01:14:59;;;;;;;16.67;10.75;;;8.10;99.90;;;;;;2062727;28;20027;-71
2021/10/23 01:15:59;;;;;;;12.77;9.45;;;8.10;99.90;;;;;;2066397;28;20026;-71
2021/10/23 01:17:00;;;;;;;15.25;11.23;;;8.10;99.90;;;;;;2066602;28;20124;-71
2021/10/23 01:18:04;;;;;;;12.35;10.20;;;8.10;99.90;;;;;;2069257;28;20449;-71
2021/10/23 01:19:05;;;;;;;12.77;9.38;;;8.10;99.90;;;;;;2070704;28;20101;-71
2021/10/23 01:20:06;;;;;;;13.38;10.57;;;8.10;99.90;;;;;;2071693;28;20497;-71
2021/10/23 01:21:07;;;;;;;13.98;10.00;;;8.10;99.90;;;;;;2071401;28;20052;-71
2021/10/23 01:22:07;;;;;;;13.15;9.43;;;8.10;99.90;;;;;;2071565;28;20450;-71
2021/10/23 01:23:08;;;;;;;13.38;9.07;;;8.10;99.90;;;;;;2068983;28;20068;-71
2021/10/23 01:24:09;;;;;;;14.73;10.20;;;8.00;99.90;;;;;;2063802;28;20058;-71
2021/10/23 01:25:13;;;;;;;16.63;9.70;;;8.10;99.90;;;;;;2064696;28;20355;-71
2021/10/23 01:26:13;;;;;;;12.00;9.35;;;8.00;99.90;;;;;;2063326;28;20023;-71
2021/10/23 01:27:14;;;;;;;16.95;11.43;;;8.10;99.90;;;;;;2063464;28;20027;-71
2021/10/23 01:28:14;;;;;;;16.98;11.13;;;8.10;99.90;;;;;;2063026;28;20053;-71
2021/10/23 01:29:17;;;;;;;21.73;12.98;;;8.10;99.90;;;;;;2063487;28;20019;-71
2021/10/23 01:30:27;;;;;;;15.82;11.95;;;8.10;99.90;;;;;;2063344;28;20475;-71
2021/10/23 01:31:28;;;;;;;13.38;11.63;;;8.10;99.90;;;;;;2068716;28;20018;-71
2021/10/23 01:32:29;;;;;;;20.50;13.52;;;8.10;99.90;;;;;;2069023;28;20037;-71
2021/10/23 01:33:29;;;;;;;17.42;11.90;;;8.10;99.90;;;;;;2070375;28;20112;-71
2021/10/23 01:34:30;;;;;;;19.13;12.63;;;8.10;99.90;;;;;;2070973;28;20473;-71
2021/10/23 01:35:31;;;;;;;20.52;12.05;;;8.10;99.90;;;;;;2075068;28;20029;-71
2021/10/23 01:36:31;;;;;;;13.93;11.80;;;8.10;99.90;;;;;;2067009;28;20033;-71
2021/10/23 01:37:41;;;;;;;17.95;13.15;;;8.10;99.90;;;;;;2067622;28;20053;-71
2021/10/23 01:38:42;;;;;;;17.73;12.88;;;8.10;99.90;;;;;;2066705;28;20058;-71
2021/10/23 01:39:42;;;;;;;18.27;12.38;;;8.10;99.90;;;;;;2070940;28;20029;-71
2021/10/23 01:40:43;;;;;;;18.00;12.15;;;8.10;99.90;;;;;;2067026;28;20035;-71
2021/10/23 01:41:44;;;;;;;18.38;11.80;;;8.10;99.90;;;;;;2064462;28;20046;-71
2021/10/23 01:42:45;;;;;;;18.20;14.43;;;8.10;99.90;;;;;;2063801;28;20046;-71
2021/10/23 01:43:45;;;;;;;21.35;13.98;;;8.10;99.90;;;;;;2063049;28;20084;-71
2021/10/23 01:44:46;;;;;;;17.95;14.63;;;8.10;99.90;;;;;;2063714;28;20026;-71
2021/10/23 01:45:46;;;;;;;21.55;15.15;;;8.10;99.90;;;;;;2063607;28;21140;-71
2021/10/23 01:46:47;;;;;;;20.75;14.98;;;8.10;99.90;;;;;;2063292;28;20077;-71
2021/10/23 01:47:47;;;;;;;22.92;13.82;;;8.10;99.90;;;;;;2063303;28;20090;-71
2021/10/23 01:48:48;;;;;;;22.98;15.60;;;8.10;99.90;;;;;;2062939;28;20026;-71
2021/10/23 01:49:48;;;;;;;22.75;15.27;;;8.10;99.90;;;;;;2063156;28;20046;-71
2021/10/23 01:50:49;;;;;;;21.65;15.65;;;8.10;99.90;;;;;;2063527;28;20502;-71
2021/10/23 01:51:50;;;;;;;18.75;15.10;;;8.10;99.90;;;;;;2063192;28;20026;-71
2021/10/23 01:52:51;;;;;;;25.75;16.80;;;8.10;99.90;;;;;;2063480;28;20023;-71
2021/10/23 01:53:52;;;;;;;24.58;17.02;;;8.10;99.90;;;;;;2063581;28;20375;-71
2021/10/23 01:54:53;;;;;;;17.35;12.68;;;8.10;99.90;;;;;;2063618;28;20359;-71
2021/10/23 01:55:53;;;;;;;23.73;15.55;;;8.10;99.90;;;;;;2063595;28;20443;-71
2021/10/23 01:56:54;;;;;;;24.38;15.93;;;8.10;99.90;;;;;;2063338;28;20471;-71
2021/10/23 01:57:57;;;;;;;22.02;16.48;;;8.10;99.90;;;;;;2061626;28;20050;-71
2021/10/23 01:58:58;;;;;;;24.70;15.32;;;8.10;99.90;;;;;;2064083;28;20116;-71
2021/10/23 01:59:58;;;;;;;19.33;14.18;;;8.10;99.90;;;;;;2068931;28;20028;-71
2021/10/23 02:00:59;;;;;;;18.13;13.93;;;8.10;99.90;;;;;;2070798;28;20456;-71
2021/10/23 02:02:01;;;;;;;21.50;15.98;;;8.10;99.90;;;;;;2063217;28;20026;-71
2021/10/23 02:03:01;;;;;;;31.83;17.38;;;8.10;99.90;;;;;;2062640;28;20449;-71
2021/10/23 02:04:02;;;;;;;22.33;16.20;;;8.10;99.90;;;;;;2063152;28;20092;-71
2021/10/23 02:05:04;;;;;;;19.70;15.13;;;8.10;99.90;;;;;;2070371;28;20112;-71
2021/10/23 02:06:10;;;;;;;27.48;17.58;;;8.10;99.90;;;;;;2068892;28;20045;-71
2021/10/23 02:07:10;;;;;;;20.15;15.95;;;8.10;99.90;;;;;;2076955;28;20029;-71
2021/10/23 02:08:11;;;;;;;21.73;15.85;;;8.10;99.90;;;;;;2069164;28;20029;-71
2021/10/23 02:09:11;;;;;;;22.52;17.42;;;8.10;99.90;;;;;;2069441;28;20049;-71
2021/10/23 02:10:12;;;;;;;28.73;17.25;;;8.10;99.90;;;;;;2063380;28;20447;-71
2021/10/23 02:11:12;;;;;;;23.48;17.35;;;8.10;99.90;;;;;;2063185;28;20034;-71
2021/10/23 02:12:13;;;;;;;22.55;16.80;;;8.20;99.90;;;;;;2063264;28;20086;-72
2021/10/23 02:13:14;;;;;;;25.58;17.05;;;8.10;99.90;;;;;;2063490;28;20033;-71
2021/10/23 02:14:14;;;;;;;26.42;17.13;;;8.20;99.90;;;;;;2066239;28;20022;-71
2021/10/23 02:15:15;;;;;;;19.95;15.48;;;8.20;99.90;;;;;;2071774;28;20026;-71
2021/10/23 02:16:16;;;;;;;22.83;17.65;;;8.20;99.90;;;;;;2071227;28;20022;-71
2021/10/23 02:17:16;;;;;;;25.80;16.98;;;8.20;99.90;;;;;;2071510;28;20083;-71
2021/10/23 02:18:17;;;;;;;18.23;14.40;;;8.10;99.90;;;;;;2070963;28;20030;-71
2021/10/23 02:19:18;;;;;;;24.25;16.40;;;8.10;99.90;;;;;;2071349;28;20050;-71
2021/10/23 02:20:18;;;;;;;22.48;17.20;;;8.20;99.90;;;;;;2071517;28;20030;-71
2021/10/23 02:21:19;;;;;;;25.98;17.75;;;8.10;99.90;;;;;;2071200;28;20010;-71
2021/10/23 02:22:19;;;;;;;28.27;18.23;;;8.10;99.90;;;;;;2067486;28;20014;-71
2021/10/23 02:23:21;;;;;;;24.25;19.42;;;8.20;99.90;;;;;;2062681;28;20023;-71
2021/10/23 02:24:21;;;;;;;22.00;18.83;;;8.10;99.90;;;;;;2063465;28;20167;-71
2021/10/23 02:25:22;;;;;;;27.17;19.20;;;8.20;99.90;;;;;;2064453;28;20030;-71
2021/10/23 02:26:22;;;;;;;30.33;20.30;;;8.20;99.90;;;;;;2064137;28;20026;-71
2021/10/23 02:27:23;;;;;;;25.58;20.77;;;8.20;99.90;;;;;;2067429;28;20060;-71
2021/10/23 02:28:23;;;;;;;26.98;19.67;;;8.20;99.90;;;;;;2070967;28;20022;-71
2021/10/23 02:29:24;;;;;;;24.50;18.67;;;8.10;99.90;;;;;;2071116;28;20061;-71
2021/10/23 02:30:24;;;;;;;30.27;20.13;;;8.20;99.90;;;;;;2071617;28;20150;-71
2021/10/23 02:31:25;;;;;;;26.65;20.58;;;8.10;99.90;;;;;;2071327;28;20026;-71
2021/10/23 02:32:26;;;;;;;29.70;21.23;;;8.20;99.90;;;;;;2071253;28;20089;-71
2021/10/23 02:33:26;;;;;;;26.55;19.65;;;8.10;99.90;;;;;;2069809;28;20088;-71
2021/10/23 02:34:27;;;;;;;30.75;20.77;;;8.10;99.90;;;;;;2063438;28;20040;-71
2021/10/23 02:35:27;;;;;;;27.55;21.17;;;8.10;99.90;;;;;;2063435;28;20154;-71
2021/10/23 02:36:28;;;;;;;26.27;20.70;;;8.10;99.90;;;;;;2072085;28;20041;-71
2021/10/23 02:37:28;;;;;;;30.25;21.60;;;8.10;99.90;;;;;;2068510;28;20029;-71
2021/10/23 02:38:29;;;;;;;29.45;21.50;;;8.10;99.90;;;;;;2069547;28;20112;-71
2021/10/23 02:39:30;;;;;;;29.23;21.27;;;8.10;99.90;;;;;;2069910;28;20026;-71
2021/10/23 02:40:30;;;;;;;31.70;23.90;;;8.10;99.90;;;;;;2071581;28;20038;-71
2021/10/23 02:41:31;;;;;;;31.23;24.52;;;8.10;99.90;;;;;;2072511;28;20456;-71
2021/10/23 02:42:31;;;;;;;33.15;24.67;;;8.10;99.90;;;;;;2064017;28;20137;-71
2021/10/23 02:43:32;;;;;;;23.90;18.42;;;8.10;99.90;;;;;;2063656;28;20085;-71
2021/10/23 02:44:33;;;;;;;31.52;23.02;;;8.10;99.90;;;;;;2065095;28;20026;-71
2021/10/23 02:45:33;;;;;;;24.60;19.45;;;8.10;99.90;;;;;;2064866;28;20022;-71
2021/10/23 02:46:34;;;;;;;23.02;18.95;;;8.10;99.90;;;;;;2064884;28;20036;-71
2021/10/23 02:47:35;;;;;;;21.98;17.08;;;8.10;99.90;;;;;;2064685;28;20030;-71
2021/10/23 02:48:35;;;;;;;29.35;24.98;;;8.10;99.90;;;;;;2064468;28;20374;-71
2021/10/23 02:49:37;;;;;;;27.20;20.25;;;8.10;99.90;;;;;;2064774;28;20026;-71
2021/10/23 02:50:38;;;;;;;25.27;18.55;;;8.10;99.90;;;;;;2064668;28;20506;-71
2021/10/23 02:51:38;;;;;;;22.45;18.00;;;8.10;99.90;;;;;;2064835;28;20406;-71
2021/10/23 02:52:39;;;;;;;23.88;19.42;;;8.10;99.90;;;;;;2064641;28;20553;-71
2021/10/23 02:53:40;;;;;;;19.80;17.08;;;8.10;99.90;;;;;;2065183;28;20041;-71
2021/10/23 02:54:40;;;;;;;21.67;15.82;;;8.10;99.90;;;;;;2070469;28;20046;-71
2021/10/23 02:55:41;;;;;;;18.10;15.52;;;8.10;99.90;;;;;;2059222;28;20081;-71
2021/10/23 02:56:42;;;;;;;24.60;18.77;;;8.10;99.90;;;;;;2067103;28;20034;-71
2021/10/23 02:57:42;;;;;;;19.70;15.50;;;8.10;99.90;;;;;;2069840;28;20101;-70
2021/10/23 02:58:43;;;;;;;20.33;16.38;;;8.10;99.90;;;;;;2064164;28;20449;-71
2021/10/23 02:59:44;;;;;;;17.63;14.43;;;8.10;99.90;;;;;;2072700;28;20026;-71
2021/10/23 03:00:44;;;;;;;17.25;14.32;;;8.10;99.90;;;;;;2072817;28;20029;-71
2021/10/23 03:01:45;;;;;;;21.05;17.88;;;8.00;99.90;;;;;;2065710;28;20080;-71
2021/10/23 03:02:45;;;;;;;20.67;17.55;;;8.00;99.90;;;;;;2064678;28;20026;-71
2021/10/23 03:03:47;;;;;;;15.88;14.18;;;8.00;99.90;;;;;;2064922;28;20085;-71
2021/10/23 03:04:47;;;;;;;18.67;15.52;;;8.00;99.90;;;;;;2064265;28;20503;-71
2021/10/23 03:05:48;;;;;;;18.35;15.38;;;8.00;99.90;;;;;;2064672;28;20367;-71
2021/10/23 03:06:48;;;;;;;18.42;14.68;;;8.00;99.90;;;;;;2072542;28;20022;-71
2021/10/23 03:07:49;;;;;;;17.48;15.45;;;7.90;99.90;;;;;;2072054;28;20034;-71
2021/10/23 03:08:50;;;;;;;23.13;16.83;;;8.00;99.90;;;;;;2072147;28;20049;-71
2021/10/23 03:09:50;;;;;;;23.55;18.58;;;8.00;99.90;;;;;;2067979;28;20022;-71
2021/10/23 03:10:51;;;;;;;21.40;14.77;;;7.90;99.90;;;;;;2069562;28;20037;-71
2021/10/23 03:11:51;;;;;;;20.58;16.75;;;7.90;99.90;;;;;;2064810;28;20026;-71
2021/10/23 03:12:52;;;;;;;18.73;16.70;;;7.90;99.90;;;;;;2064428;28;20076;-71
2021/10/23 03:13:55;;;;;;;20.98;16.83;;;7.90;99.90;;;;;;2071935;28;20478;-71
2021/10/23 03:14:55;;;;;;;22.45;17.75;;;7.90;99.90;;;;;;2064335;28;20109;-71
2021/10/23 03:15:56;;;;;;;22.40;19.17;;;7.90;99.90;;;;;;2065064;28;20030;-71
2021/10/23 03:16:57;;;;;;;20.25;16.92;;;7.90;99.90;;;;;;2064268;28;20037;-71
2021/10/23 03:17:57;;;;;;;21.38;15.90;;;7.90;99.90;;;;;;2064511;28;20031;-71
2021/10/23 03:18:58;;;;;;;18.65;15.68;;;7.90;99.90;;;;;;2063766;28;20110;-71
2021/10/23 03:19:58;;;;;;;21.40;17.30;;;7.90;99.90;;;;;;2064758;28;20109;-71
2021/10/23 03:21:00;;;;;;;18.05;15.57;;;7.90;99.90;;;;;;2064711;28;20494;-71
2021/10/23 03:22:00;;;;;;;17.85;15.93;;;7.90;99.90;;;;;;2068500;28;20022;-71
2021/10/23 03:23:01;;;;;;;21.48;18.48;;;7.90;99.90;;;;;;2064727;28;20089;-71
2021/10/23 03:24:01;;;;;;;28.27;20.63;;;7.90;99.90;;;;;;2064487;28;20030;-71
2021/10/23 03:25:02;;;;;;;25.98;21.58;;;7.90;99.90;;;;;;2064639;28;20138;-71
2021/10/23 03:26:03;;;;;;;24.70;20.52;;;7.90;99.90;;;;;;2065331;28;20037;-72
2021/10/23 03:27:04;;;;;;;22.25;19.10;;;7.90;99.90;;;;;;2064549;28;20371;-71
2021/10/23 03:28:04;;;;;;;23.95;18.15;;;7.90;99.90;;;;;;2064185;28;20066;-71
2021/10/23 03:29:05;;;;;;;22.63;17.65;;;7.90;99.90;;;;;;2068607;28;20545;-71
2021/10/23 03:30:06;;;;;;;21.20;17.90;;;7.90;99.90;;;;;;2072633;28;20058;-71
2021/10/23 03:31:07;;;;;;;21.38;17.95;;;7.90;99.90;;;;;;2070290;28;20109;-71
2021/10/23 03:32:07;;;;;;;22.60;18.85;;;7.90;99.90;;;;;;2069934;28;21033;-71
2021/10/23 03:33:08;;;;;;;22.77;17.70;;;7.90;99.90;;;;;;2072731;28;20103;-71
2021/10/23 03:34:08;;;;;;;20.92;17.55;;;7.90;99.90;;;;;;2066583;28;20080;-71
2021/10/23 03:35:09;;;;;;;19.60;16.63;;;7.90;99.90;;;;;;2064172;28;20026;-71
2021/10/23 03:36:10;;;;;;;29.67;23.60;;;7.90;99.90;;;;;;2064667;28;20470;-71
2021/10/23 03:37:11;;;;;;;26.92;19.50;;;7.90;99.90;;;;;;2068978;28;20023;-71
2021/10/23 03:38:11;;;;;;;32.92;24.23;;;7.90;99.90;;;;;;2072055;28;20026;-71
2021/10/23 03:39:12;;;;;;;25.42;20.20;;;7.90;99.90;;;;;;2068976;28;20078;-71
2021/10/23 03:40:12;;;;;;;27.15;20.90;;;7.90;99.90;;;;;;2070809;28;20050;-71
2021/10/23 03:41:13;;;;;;;24.90;20.38;;;7.90;99.90;;;;;;2072112;28;20022;-71
2021/10/23 03:42:14;;;;;;;29.08;23.02;;;7.90;99.90;;;;;;2066537;28;20050;-71
2021/10/23 03:43:15;;;;;;;31.75;24.40;;;7.90;99.90;;;;;;2064475;28;20027;-71
2021/10/23 03:44:15;;;;;;;27.08;20.27;;;7.90;99.90;;;;;;2064248;28;20060;-71
2021/10/23 03:45:16;;;;;;;24.42;18.20;;;7.90;99.90;;;;;;2064337;28;20027;-72
2021/10/23 03:46:16;;;;;;;24.95;20.17;;;7.90;99.90;;;;;;2063894;28;20201;-71
2021/10/23 03:47:17;;;;;;;32.42;24.60;;;7.90;99.90;;;;;;2064323;28;20034;-71
2021/10/23 03:48:18;;;;;;;33.80;25.58;;;7.90;99.90;;;;;;2063531;28;20030;-71
2021/10/23 03:49:18;;;;;;;27.65;22.33;;;7.90;99.90;;;;;;2064390;28;20026;-71
2021/10/23 03:50:19;;;;;;;28.48;21.70;;;7.90;99.90;;;;;;2065304;28;20074;-71
2021/10/23 03:51:19;;;;;;;23.77;20.15;;;7.90;99.90;;;;;;2065212;28;20490;-71
2021/10/23 03:52:20;;;;;;;34.38;23.42;;;7.90;99.90;;;;;;2072610;28;20092;-71
2021/10/23 03:53:20;;;;;;;35.67;25.65;;;7.90;99.90;;;;;;2072152;28;20014;-71
2021/10/23 03:54:21;;;;;;;30.48;22.90;;;7.90;99.90;;;;;;2072384;28;20048;-71
2021/10/23 03:55:22;;;;;;;32.05;25.27;;;7.90;99.90;;;;;;2067902;28;20474;-71
2021/10/23 03:56:23;;;;;;;34.30;25.95;;;7.90;99.90;;;;;;2069910;28;20092;-71
2021/10/23 03:57:23;;;;;;;36.33;26.80;;;7.90;99.90;;;;;;2067607;28;20459;-71
2021/10/23 03:58:24;;;;;;;36.05;26.88;;;7.90;99.90;;;;;;2066363;28;20036;-71
2021/10/23 03:59:24;;;;;;;35.13;26.58;;;7.90;99.90;;;;;;2069820;28;20343;-71
2021/10/23 04:00:25;;;;;;;30.45;22.20;;;7.90;99.90;;;;;;2072426;28;20022;-71
2021/10/23 04:01:25;;;;;;;32.38;24.92;;;7.90;99.90;;;;;;2068085;28;20030;-72
2021/10/23 04:02:26;;;;;;;32.13;24.92;;;7.90;99.90;;;;;;2063454;28;20038;-71
2021/10/23 04:03:26;;;;;;;34.53;24.63;;;7.90;99.90;;;;;;2063581;28;20665;-71
2021/10/23 04:04:27;;;;;;;36.08;26.35;;;7.90;99.90;;;;;;2064284;28;20070;-71
2021/10/23 04:05:28;;;;;;;31.80;21.75;;;7.90;99.90;;;;;;2063921;28;20022;-71
2021/10/23 04:06:28;;;;;;;31.98;23.67;;;7.90;99.90;;;;;;2064266;28;20037;-71
2021/10/23 04:07:29;;;;;;;28.50;21.45;;;7.90;99.90;;;;;;2065537;28;20128;-71
2021/10/23 04:08:29;;;;;;;27.08;21.15;;;7.80;99.90;;;;;;2072068;28;20029;-71
2021/10/23 04:09:30;;;;;;;30.35;21.48;;;7.80;99.90;;;;;;2071483;28;20032;-71
2021/10/23 04:10:30;;;;;;;26.75;21.50;;;7.80;99.90;;;;;;2071813;28;20022;-71
2021/10/23 04:11:31;;;;;;;27.50;21.23;;;7.90;99.90;;;;;;2064445;28;20527;-71
2021/10/23 04:12:32;;;;;;;31.98;23.13;;;7.90;99.90;;;;;;2064353;28;20113;-71
2021/10/23 04:13:32;;;;;;;22.13;18.85;;;7.80;99.90;;;;;;2068558;28;20054;-71
2021/10/23 04:14:33;;;;;;;22.38;17.23;;;7.80;99.90;;;;;;2066684;28;20019;-71
2021/10/23 04:15:33;;;;;;;20.52;17.65;;;7.80;99.90;;;;;;2064160;28;20026;-71
2021/10/23 04:16:34;;;;;;;30.60;23.30;;;7.80;99.90;;;;;;2064176;28;20027;-71
2021/10/23 04:17:35;;;;;;;24.77;19.55;;;7.80;99.90;;;;;;2066262;28;20037;-71
2021/10/23 04:18:36;;;;;;;27.92;21.40;;;7.80;99.90;;;;;;2063621;28;20019;-71
2021/10/23 04:19:36;;;;;;;21.65;17.65;;;7.80;99.90;;;;;;2070845;28;20200;-71
2021/10/23 04:20:37;;;;;;;23.35;18.15;;;7.80;99.90;;;;;;2072154;28;20030;-71
2021/10/23 04:21:37;;;;;;;20.85;17.20;;;7.80;99.90;;;;;;2072160;28;20051;-71
2021/10/23 04:22:39;;;;;;;21.83;16.70;;;7.80;99.90;;;;;;2072344;28;20117;-71
2021/10/23 04:23:40;;;;;;;30.17;20.95;;;7.80;99.90;;;;;;2079366;28;20101;-71
2021/10/23 04:24:41;;;;;;;28.95;17.13;;;7.80;99.90;;;;;;2079056;28;20455;-72
2021/10/23 04:25:41;;;;;;;22.10;17.10;;;7.80;99.90;;;;;;2068631;28;20036;-71
2021/10/23 04:26:42;;;;;;;26.27;20.75;;;7.80;99.90;;;;;;2063327;28;20061;-71
2021/10/23 04:27:43;;;;;;;25.40;20.00;;;7.80;99.90;;;;;;2063051;28;20105;-71
2021/10/23 04:28:44;;;;;;;29.25;22.45;;;7.80;99.90;;;;;;2063317;28;20027;-71
2021/10/23 04:29:45;;;;;;;27.33;19.95;;;7.80;99.90;;;;;;2063790;28;20069;-71
2021/10/23 04:30:45;;;;;;;29.90;23.25;;;7.80;99.90;;;;;;2064260;28;20034;-71
2021/10/23 04:31:46;;;;;;;27.17;21.02;;;7.80;99.90;;;;;;2064156;28;20053;-71
2021/10/23 04:32:46;;;;;;;29.38;23.85;;;7.80;99.90;;;;;;2064020;28;20038;-71
2021/10/23 04:33:47;;;;;;;24.00;20.15;;;7.70;99.90;;;;;;2068860;28;20158;-71
2021/10/23 04:34:48;;;;;;;27.38;21.73;;;7.80;99.90;;;;;;2071393;28;20080;-71
2021/10/23 04:35:50;;;;;;;28.65;21.42;;;7.80;99.90;;;;;;2069072;28;20597;-71
2021/10/23 04:36:51;;;;;;;28.27;21.58;;;7.70;99.90;;;;;;2065719;28;20073;-71
2021/10/23 04:37:51;;;;;;;30.05;22.77;;;7.70;99.90;;;;;;2067638;28;20097;-71
2021/10/23 04:38:52;;;;;;;23.83;19.10;;;7.70;99.90;;;;;;2070598;28;20040;-71
2021/10/23 04:39:52;;;;;;;25.58;20.27;;;7.70;99.90;;;;;;2071713;28;20041;-71
2021/10/23 04:40:53;;;;;;;25.48;20.48;;;7.70;99.90;;;;;;2064149;28;20073;-71
2021/10/23 04:41:54;;;;;;;25.55;19.58;;;7.70;99.90;;;;;;2063871;28;20336;-71
2021/10/23 04:42:54;;;;;;;24.75;20.05;;;7.70;99.90;;;;;;2064085;28;20022;-71
2021/10/23 04:43:55;;;;;;;28.63;20.08;;;7.70;99.90;;;;;;2064018;28;20034;-71
2021/10/23 04:44:55;;;;;;;32.33;23.35;;;7.70;99.90;;;;;;2063602;28;20033;-71
2021/10/23 04:45:56;;;;;;;31.70;24.58;;;7.70;99.90;;;;;;2068680;28;20054;-71
2021/10/23 04:46:56;;;;;;;33.50;24.67;;;7.70;99.90;;;;;;2067114;28;20030;-72
2021/10/23 04:47:58;;;;;;;37.97;27.45;;;7.70;99.90;;;;;;2064009;28;20029;-71
2021/10/23 04:48:59;;;;;;;31.92;24.98;;;7.70;99.90;;;;;;2063250;28;20028;-71
2021/10/23 04:49:59;;;;;;;40.13;29.13;;;7.70;99.90;;;;;;2063901;28;20026;-71
2021/10/23 04:51:00;;;;;;;37.78;29.65;;;7.70;99.90;;;;;;2063497;28;20064;-71
2021/10/23 04:52:01;;;;;;;36.90;28.33;;;7.70;99.90;;;;;;2063992;28;20103;-71
2021/10/23 04:53:01;;;;;;;29.63;22.85;;;7.70;99.90;;;;;;2063893;28;20533;-71
2021/10/23 04:54:02;;;;;;;26.38;20.02;;;7.70;99.90;;;;;;2066383;28;20065;-71
2021/10/23 04:55:03;;;;;;;25.48;19.85;;;7.70;99.90;;;;;;2067445;28;20057;-71
2021/10/23 04:56:03;;;;;;;28.67;20.90;;;7.70;99.90;;;;;;2063402;28;20054;-71
2021/10/23 04:57:05;;;;;;;26.15;21.00;;;7.70;99.90;;;;;;2063117;28;20034;-71
2021/10/23 04:58:05;;;;;;;28.67;22.67;;;7.70;99.90;;;;;;2067904;28;20027;-71
2021/10/23 04:59:06;;;;;;;32.67;25.20;;;7.70;99.90;;;;;;2066448;28;20798;-71
2021/10/23 05:00:07;;;;;;;24.98;20.48;;;7.70;99.90;;;;;;2071715;28;20422;-71
2021/10/23 05:01:08;;;;;;;27.15;21.00;;;7.70;99.90;;;;;;2069858;28;20037;-71
2021/10/23 05:02:08;;;;;;;28.95;19.52;;;7.70;99.90;;;;;;2063799;28;20014;-71
2021/10/23 05:03:09;;;;;;;22.48;18.25;;;7.70;99.90;;;;;;2063715;28;20030;-71
2021/10/23 05:04:09;;;;;;;24.55;19.73;;;7.70;99.90;;;;;;2063676;28;20026;-71
2021/10/23 05:05:10;;;;;;;22.08;18.42;;;7.60;99.90;;;;;;2063786;28;20522;-72
2021/10/23 05:06:11;;;;;;;18.98;16.65;;;7.70;99.90;;;;;;2063765;28;20089;-71
2021/10/23 05:07:11;;;;;;;25.80;19.55;;;7.60;99.90;;;;;;2064687;28;20029;-71
2021/10/23 05:08:12;;;;;;;28.30;22.52;;;7.60;99.90;;;;;;2063908;28;20026;-71
2021/10/23 05:09:12;;;;;;;29.58;22.05;;;7.60;99.90;;;;;;2066845;28;20026;-71
2021/10/23 05:10:15;;;;;;;25.60;19.42;;;7.60;99.90;;;;;;2063300;28;20030;-71
2021/10/23 05:11:16;;;;;;;27.20;21.52;;;7.60;99.90;;;;;;2076284;28;20027;-72
2021/10/23 05:12:16;;;;;;;22.35;19.65;;;7.60;99.90;;;;;;2063719;28;20029;-71
2021/10/23 05:13:17;;;;;;;32.35;23.60;;;7.60;99.90;;;;;;2066291;28;20104;-71
2021/10/23 05:14:19;;;;;;;32.00;23.35;;;7.60;99.90;;;;;;2067472;28;20030;-71